createdAt,value
2023-04-16T00:01:02.979Z,102419.56
2023-04-16T00:03:29.756Z,102425.59
2023-04-16T00:05:56.890Z,102420.25
2023-04-16T00:08:26.601Z,102413.13
2023-04-16T00:10:54.242Z,102413.06
2023-04-16T00:13:21.329Z,102412.13
2023-04-16T00:15:48.077Z,102407.75
2023-04-16T00:18:14.793Z,102402.50
2023-04-16T00:20:41.403Z,102404.16
2023-04-16T00:23:08.031Z,102399.59
2023-04-16T00:25:34.631Z,102405.56
2023-04-16T00:28:01.297Z,102393.34
2023-04-16T00:30:27.983Z,102391.50
2023-04-16T00:32:54.683Z,102388.75
2023-04-16T00:35:21.503Z,102390.50
2023-04-16T00:37:48.193Z,102389.53
2023-04-16T00:40:14.844Z,102389.41
2023-04-16T00:42:41.475Z,102391.91
2023-04-16T00:45:08.986Z,102384.00
2023-04-16T00:47:35.940Z,102388.25
2023-04-16T00:50:04.602Z,102388.25
2023-04-16T00:52:32.901Z,102378.63
2023-04-16T00:54:59.708Z,102383.03
2023-04-16T00:57:27.093Z,102383.94
2023-04-16T00:59:54.634Z,102374.34
2023-04-16T01:02:21.411Z,102373.41
2023-04-16T01:04:48.323Z,102379.41
2023-04-16T01:07:14.992Z,102374.06
2023-04-16T01:09:41.725Z,102372.16
2023-04-16T01:12:08.517Z,102378.19
2023-04-16T01:14:36.555Z,102370.25
2023-04-16T01:17:04.251Z,102376.28
2023-04-16T01:19:36.403Z,102377.94
2023-04-16T01:22:04.021Z,102374.47
2023-04-16T01:24:31.228Z,102378.88
2023-04-16T01:27:01.019Z,102374.47
2023-04-16T01:29:27.791Z,102374.34
2023-04-16T01:31:54.556Z,102373.34
2023-04-16T01:34:21.301Z,102368.03
2023-04-16T01:36:47.991Z,102361.00
2023-04-16T01:39:16.498Z,102360.16
2023-04-16T01:41:43.768Z,102367.13
2023-04-16T01:44:10.840Z,102361.81
2023-04-16T01:46:38.219Z,102360.88
2023-04-16T01:49:07.325Z,102356.44
2023-04-16T01:51:34.254Z,102362.47
2023-04-16T01:54:01.028Z,102365.00
2023-04-16T01:56:27.834Z,102357.84
2023-04-16T01:58:54.542Z,102355.22
2023-04-16T02:01:21.294Z,102365.72
2023-04-16T02:03:48.765Z,102363.16
2023-04-16T02:06:15.722Z,102364.91
2023-04-16T02:08:42.423Z,102373.63
2023-04-16T02:11:09.227Z,102359.53
2023-04-16T02:13:36.093Z,102367.34
2023-04-16T02:16:02.852Z,102364.59
2023-04-16T02:18:29.535Z,102361.00
2023-04-16T02:20:58.931Z,102367.09
2023-04-16T02:23:25.698Z,102366.22
2023-04-16T02:25:52.393Z,102354.97
2023-04-16T02:28:19.076Z,102366.22
2023-04-16T02:30:45.756Z,102363.44
2023-04-16T02:33:12.571Z,102363.38
2023-04-16T02:35:40.136Z,102366.00
2023-04-16T02:38:07.638Z,102362.53
2023-04-16T02:40:34.392Z,102365.09
2023-04-16T02:43:01.194Z,102367.63
2023-04-16T02:45:27.949Z,102363.25
2023-04-16T02:47:54.660Z,102359.00
2023-04-16T02:50:21.370Z,102360.75
2023-04-16T02:52:48.640Z,102365.16
2023-04-16T02:55:15.439Z,102373.81
2023-04-16T02:57:42.719Z,102363.28
2023-04-16T03:00:10.022Z,102361.50
2023-04-16T03:02:36.862Z,102364.03
2023-04-16T03:05:04.166Z,102363.06
2023-04-16T03:07:30.815Z,102366.44
2023-04-16T03:09:57.511Z,102366.44
2023-04-16T03:12:24.241Z,102369.00
2023-04-16T03:14:52.579Z,102364.50
2023-04-16T03:17:19.382Z,102370.66
2023-04-16T03:19:46.221Z,102368.03
2023-04-16T03:22:13.417Z,102363.69
2023-04-16T03:24:40.072Z,102360.03
2023-04-16T03:27:06.688Z,102364.28
2023-04-16T03:29:33.466Z,102364.13
2023-04-16T03:32:00.177Z,102368.41
2023-04-16T03:34:26.948Z,102370.09
2023-04-16T03:36:53.543Z,102373.63
2023-04-16T03:39:20.638Z,102378.84
2023-04-16T03:41:47.325Z,102376.31
2023-04-16T03:44:13.967Z,102378.13
2023-04-16T03:46:40.668Z,102385.97
2023-04-16T03:49:07.916Z,102379.88
2023-04-16T03:51:34.978Z,102375.56
2023-04-16T03:54:01.596Z,102374.66
2023-04-16T03:56:28.205Z,102379.88
2023-04-16T03:58:56.023Z,102377.28
2023-04-16T04:01:22.651Z,102385.13
2023-04-16T04:03:49.632Z,102373.81
2023-04-16T04:06:16.503Z,102375.56
2023-04-16T04:08:43.151Z,102379.13
2023-04-16T04:11:09.768Z,102384.34
2023-04-16T04:13:36.377Z,102385.06
2023-04-16T04:16:03.067Z,102385.97
2023-04-16T04:18:29.752Z,102389.41
2023-04-16T04:20:56.370Z,102392.09
2023-04-16T04:23:22.998Z,102394.72
2023-04-16T04:25:49.804Z,102393.84
2023-04-16T04:28:16.529Z,102392.09
2023-04-16T04:30:43.236Z,102392.06
2023-04-16T04:33:09.911Z,102382.50
2023-04-16T04:35:36.711Z,102388.59
2023-04-16T04:38:03.686Z,102391.25
2023-04-16T04:40:30.455Z,102389.56
2023-04-16T04:42:57.071Z,102384.34
2023-04-16T04:45:26.878Z,102380.97
2023-04-16T04:47:53.815Z,102375.72
2023-04-16T04:50:21.728Z,102377.56
2023-04-16T04:52:48.370Z,102382.72
2023-04-16T04:55:16.093Z,102380.09
2023-04-16T04:57:42.819Z,102382.72
2023-04-16T05:00:09.954Z,102390.75
2023-04-16T05:02:36.675Z,102374.16
2023-04-16T05:05:04.169Z,102389.97
2023-04-16T05:07:31.684Z,102374.28
2023-04-16T05:09:58.376Z,102378.78
2023-04-16T05:12:25.034Z,102381.47
2023-04-16T05:14:51.749Z,102382.38
2023-04-16T05:17:18.483Z,102385.06
2023-04-16T05:19:45.328Z,102380.81
2023-04-16T05:22:12.626Z,102387.00
2023-04-16T05:24:39.269Z,102387.00
2023-04-16T05:27:06.520Z,102387.88
2023-04-16T05:29:33.199Z,102386.22
2023-04-16T05:31:59.904Z,102373.19
2023-04-16T05:34:26.512Z,102386.44
2023-04-16T05:36:53.172Z,102375.19
2023-04-16T05:39:20.292Z,102379.69
2023-04-16T05:41:47.064Z,102379.81
2023-04-16T05:44:15.308Z,102383.47
2023-04-16T05:46:42.006Z,102379.19
2023-04-16T05:49:08.963Z,102376.66
2023-04-16T05:51:36.119Z,102372.38
2023-04-16T05:54:02.812Z,102372.53
2023-04-16T05:56:29.596Z,102383.94
2023-04-16T05:58:56.226Z,102378.75
2023-04-16T06:01:22.933Z,102385.94
2023-04-16T06:03:49.704Z,102374.75
2023-04-16T06:06:16.463Z,102375.81
2023-04-16T06:08:43.089Z,102374.25
2023-04-16T06:11:09.807Z,102377.91
2023-04-16T06:13:37.492Z,102378.91
2023-04-16T06:16:04.315Z,102374.72
2023-04-16T06:18:31.065Z,102373.09
2023-04-16T06:20:59.379Z,102370.56
2023-04-16T06:23:26.206Z,102364.66
2023-04-16T06:25:52.860Z,102365.66
2023-04-16T06:28:19.470Z,102369.28
2023-04-16T06:30:47.192Z,102366.75
2023-04-16T06:33:13.909Z,102374.72
2023-04-16T06:35:40.954Z,102373.09
2023-04-16T06:38:07.613Z,102375.88
2023-04-16T06:40:34.464Z,102381.28
2023-04-16T06:43:01.208Z,102384.97
2023-04-16T06:45:27.837Z,102384.28
2023-04-16T06:47:54.608Z,102387.09
2023-04-16T06:50:22.352Z,102396.91
2023-04-16T06:52:49.083Z,102393.50
2023-04-16T06:55:15.772Z,102401.56
2023-04-16T06:57:42.424Z,102391.16
2023-04-16T07:00:09.700Z,102395.72
2023-04-16T07:02:36.402Z,102392.34
2023-04-16T07:05:03.442Z,102386.38
2023-04-16T07:07:30.123Z,102390.84
2023-04-16T07:09:56.930Z,102388.31
2023-04-16T07:12:23.554Z,102387.59
2023-04-16T07:14:50.299Z,102391.22
2023-04-16T07:17:16.910Z,102387.81
2023-04-16T07:19:44.532Z,102386.16
2023-04-16T07:22:11.166Z,102389.75
2023-04-16T07:24:37.770Z,102384.59
2023-04-16T07:27:04.463Z,102394.34
2023-04-16T07:29:31.070Z,102384.81
2023-04-16T07:31:58.039Z,102377.91
2023-04-16T07:34:24.741Z,102385.06
2023-04-16T07:36:51.422Z,102389.50
2023-04-16T07:39:18.123Z,102376.44
2023-04-16T07:41:44.815Z,102374.78
2023-04-16T07:44:11.419Z,102371.38
2023-04-16T07:46:46.083Z,102372.31
2023-04-16T07:49:14.555Z,102380.34
2023-04-16T07:51:41.297Z,102376.91
2023-04-16T07:54:07.930Z,102382.25
2023-04-16T07:56:34.610Z,102375.28
2023-04-16T07:59:14.352Z,102374.50
2023-04-16T08:01:41.599Z,102377.19
2023-04-16T08:04:08.398Z,102370.19
2023-04-16T08:06:35.079Z,102370.28
2023-04-16T08:09:01.701Z,102370.34
2023-04-16T08:11:28.500Z,102369.53
2023-04-16T08:13:55.249Z,102378.38
2023-04-16T08:16:21.967Z,102370.47
2023-04-16T08:18:48.733Z,102375.78
2023-04-16T08:21:15.454Z,102368.69
2023-04-16T08:23:42.108Z,102365.13
2023-04-16T08:26:08.746Z,102362.31
2023-04-16T08:28:35.432Z,102364.81
2023-04-16T08:31:02.307Z,102359.28
2023-04-16T08:33:28.979Z,102364.34
2023-04-16T08:35:55.892Z,102362.28
2023-04-16T08:38:22.537Z,102368.88
2023-04-16T08:40:49.318Z,102358.63
2023-04-16T08:43:18.230Z,102372.19
2023-04-16T08:45:47.461Z,102361.06
2023-04-16T08:48:15.189Z,102360.66
2023-04-16T08:50:42.907Z,102362.88
2023-04-16T08:53:13.723Z,102364.25
2023-04-16T08:55:43.675Z,102360.75
2023-04-16T08:58:21.412Z,102362.06
2023-04-16T09:00:48.892Z,102367.75
2023-04-16T09:03:15.849Z,102370.78
2023-04-16T09:05:43.093Z,102370.09
2023-04-16T09:08:09.770Z,102370.16
2023-04-16T09:10:36.742Z,102367.25
2023-04-16T09:13:03.422Z,102361.34
2023-04-16T09:15:30.668Z,102360.38
2023-04-16T09:17:57.727Z,102363.03
2023-04-16T09:20:24.724Z,102365.78
2023-04-16T09:22:51.404Z,102362.38
2023-04-16T09:25:21.079Z,102357.50
2023-04-16T09:27:50.139Z,102363.63
2023-04-16T09:30:22.054Z,102360.78
2023-04-16T09:32:49.633Z,102355.31
2023-04-16T09:35:18.617Z,102359.78
2023-04-16T09:37:56.857Z,102357.97
2023-04-16T09:40:27.844Z,102358.25
2023-04-16T09:42:57.789Z,102357.53
2023-04-16T09:45:24.646Z,102357.81
2023-04-16T09:47:51.519Z,102358.22
2023-04-16T09:50:19.934Z,102358.44
2023-04-16T09:52:50.805Z,102357.78
2023-04-16T09:55:23.093Z,102355.38
2023-04-16T09:57:49.714Z,102365.34
2023-04-16T10:00:18.926Z,102357.47
2023-04-16T10:02:46.590Z,102361.97
2023-04-16T10:05:17.820Z,102359.25
2023-04-16T10:07:44.477Z,102364.44
2023-04-16T10:10:11.213Z,102360.72
2023-04-16T10:12:37.908Z,102349.00
2023-04-16T10:15:05.081Z,102362.19
2023-04-16T10:17:31.934Z,102353.91
2023-04-16T10:20:00.036Z,102356.22
2023-04-16T10:22:26.758Z,102353.50
2023-04-16T10:24:54.867Z,102356.09
2023-04-16T10:27:21.696Z,102355.81
2023-04-16T10:29:49.624Z,102350.19
2023-04-16T10:32:18.336Z,102355.38
2023-04-16T10:34:45.223Z,102352.63
2023-04-16T10:37:12.662Z,102350.81
2023-04-16T10:39:39.397Z,102355.16
2023-04-16T10:42:13.483Z,102343.22
2023-04-16T10:44:44.263Z,102352.75
2023-04-16T10:47:14.009Z,102348.91
2023-04-16T10:49:42.482Z,102343.31
2023-04-16T10:52:20.241Z,102342.34
2023-04-16T10:54:48.457Z,102345.78
2023-04-16T10:57:20.633Z,102338.50
2023-04-16T10:59:48.970Z,102341.84
2023-04-16T11:02:18.481Z,102347.94
2023-04-16T11:04:47.866Z,102343.41
2023-04-16T11:07:20.989Z,102348.03
2023-04-16T11:09:55.251Z,102347.94
2023-04-16T11:12:23.015Z,102342.47
2023-04-16T11:14:54.639Z,102340.75
2023-04-16T11:17:21.992Z,102340.72
2023-04-16T11:19:48.706Z,102346.88
2023-04-16T11:22:17.446Z,102345.84
2023-04-16T11:24:47.590Z,102345.56
2023-04-16T11:27:16.121Z,102351.53
2023-04-16T11:29:44.545Z,102344.97
2023-04-16T11:32:21.696Z,102335.84
2023-04-16T11:34:48.388Z,102342.94
2023-04-16T11:37:15.158Z,102339.22
2023-04-16T11:39:49.756Z,102340.81
2023-04-16T11:42:22.757Z,102335.91
2023-04-16T11:44:57.474Z,102331.06
2023-04-16T11:47:24.882Z,102335.13
2023-04-16T11:49:51.813Z,102336.72
2023-04-16T11:52:33.659Z,102334.50
2023-04-16T11:55:00.465Z,102344.25
2023-04-16T11:57:31.713Z,102322.59
2023-04-16T12:00:01.539Z,102328.19
2023-04-16T12:02:37.516Z,102326.22
2023-04-16T12:05:05.367Z,102328.59
2023-04-16T12:07:32.179Z,102324.66
2023-04-16T12:10:07.874Z,102321.78
2023-04-16T12:12:35.460Z,102320.06
2023-04-16T12:15:05.696Z,102322.94
2023-04-16T12:17:33.873Z,102320.84
2023-04-16T12:20:06.261Z,102317.63
2023-04-16T12:22:37.658Z,102315.47
2023-04-16T12:25:07.142Z,102321.59
2023-04-16T12:27:53.698Z,102317.75
2023-04-16T12:30:23.113Z,102317.75
2023-04-16T12:32:52.292Z,102308.72
2023-04-16T12:35:33.752Z,102319.09
2023-04-16T12:38:01.026Z,102306.28
2023-04-16T12:40:27.878Z,102317.47
2023-04-16T12:42:55.051Z,102314.84
2023-04-16T12:45:22.300Z,102311.16
2023-04-16T12:47:50.576Z,102308.25
2023-04-16T12:50:17.844Z,102310.69
2023-04-16T12:52:44.852Z,102310.81
2023-04-16T12:55:12.007Z,102308.44
2023-04-16T12:57:38.637Z,102312.09
2023-04-16T13:00:10.682Z,102310.09
2023-04-16T13:02:37.604Z,102313.41
2023-04-16T13:05:04.721Z,102304.03
2023-04-16T13:07:32.323Z,102301.66
2023-04-16T13:09:59.965Z,102302.75
2023-04-16T13:12:27.660Z,102301.44
2023-04-16T13:14:55.492Z,102297.91
2023-04-16T13:17:22.305Z,102302.50
2023-04-16T13:19:48.935Z,102308.63
2023-04-16T13:22:15.832Z,102304.13
2023-04-16T13:24:42.492Z,102300.25
2023-04-16T13:27:09.196Z,102301.84
2023-04-16T13:29:38.588Z,102301.59
2023-04-16T13:32:05.800Z,102303.75
2023-04-16T13:34:32.836Z,102303.31
2023-04-16T13:36:59.454Z,102298.06
2023-04-16T13:39:26.239Z,102288.44
2023-04-16T13:41:52.848Z,102297.81
2023-04-16T13:44:19.486Z,102298.16
2023-04-16T13:46:47.891Z,102300.09
2023-04-16T13:49:15.117Z,102296.13
2023-04-16T13:51:47.270Z,102301.13
2023-04-16T13:54:14.160Z,102290.97
2023-04-16T13:56:40.929Z,102296.81
2023-04-16T13:59:08.161Z,102291.69
2023-04-16T14:01:35.048Z,102291.78
2023-04-16T14:04:06.466Z,102292.97
2023-04-16T14:06:34.448Z,102293.34
2023-04-16T14:09:01.458Z,102307.88
2023-04-16T14:11:28.197Z,102297.41
2023-04-16T14:13:55.118Z,102295.03
2023-04-16T14:16:21.763Z,102304.25
2023-04-16T14:18:48.450Z,102301.78
2023-04-16T14:21:15.095Z,102302.78
2023-04-16T14:23:41.716Z,102306.34
2023-04-16T14:26:08.489Z,102301.91
2023-04-16T14:28:35.832Z,102300.81
2023-04-16T14:31:02.582Z,102296.25
2023-04-16T14:33:29.355Z,102300.38
2023-04-16T14:35:56.158Z,102308.03
2023-04-16T14:38:22.857Z,102297.66
2023-04-16T14:40:49.564Z,102306.88
2023-04-16T14:43:16.248Z,102301.72
2023-04-16T14:45:43.238Z,102299.19
2023-04-16T14:48:10.043Z,102298.88
2023-04-16T14:50:43.597Z,102305.91
2023-04-16T14:53:12.165Z,102304.75
2023-04-16T14:55:38.927Z,102301.97
2023-04-16T14:58:05.662Z,102307.13
2023-04-16T15:00:35.651Z,102304.53
2023-04-16T15:03:02.420Z,102300.91
2023-04-16T15:05:30.307Z,102306.19
2023-04-16T15:07:57.044Z,102317.97
2023-04-16T15:10:23.730Z,102317.09
2023-04-16T15:12:50.472Z,102316.38
2023-04-16T15:15:17.647Z,102324.78
2023-04-16T15:17:44.579Z,102321.75
2023-04-16T15:20:11.948Z,102320.44
2023-04-16T15:22:38.848Z,102322.75
2023-04-16T15:25:06.413Z,102322.28
2023-04-16T15:27:33.064Z,102325.41
2023-04-16T15:29:59.809Z,102326.88
2023-04-16T15:32:26.550Z,102327.47
2023-04-16T15:34:53.208Z,102333.34
2023-04-16T15:37:19.869Z,102337.47
2023-04-16T15:39:46.506Z,102336.94
2023-04-16T15:42:13.357Z,102331.09
2023-04-16T15:44:40.509Z,102337.56
2023-04-16T15:47:08.585Z,102337.97
2023-04-16T15:49:36.060Z,102335.56
2023-04-16T15:52:03.133Z,102340.91
2023-04-16T15:54:30.568Z,102346.16
2023-04-16T15:56:58.764Z,102350.53
2023-04-16T15:59:26.709Z,102353.97
2023-04-16T16:01:53.476Z,102354.66
2023-04-16T16:04:22.855Z,102357.03
2023-04-16T16:06:50.315Z,102357.84
2023-04-16T16:09:17.076Z,102359.91
2023-04-16T16:11:43.826Z,102364.75
2023-04-16T16:14:10.929Z,102366.88
2023-04-16T16:16:37.872Z,102359.31
2023-04-16T16:19:04.705Z,102363.16
2023-04-16T16:21:32.587Z,102375.00
2023-04-16T16:23:59.314Z,102368.16
2023-04-16T16:26:25.994Z,102363.16
2023-04-16T16:28:52.686Z,102369.41
2023-04-16T16:31:19.420Z,102363.16
2023-04-16T16:33:46.205Z,102367.72
2023-04-16T16:36:12.949Z,102370.50
2023-04-16T16:38:42.665Z,102374.78
2023-04-16T16:41:09.533Z,102378.38
2023-04-16T16:43:39.135Z,102384.91
2023-04-16T16:46:07.467Z,102383.56
2023-04-16T16:48:34.189Z,102390.22
2023-04-16T16:51:01.148Z,102389.69
2023-04-16T16:53:27.775Z,102388.25
2023-04-16T16:55:54.418Z,102383.91
2023-04-16T16:58:21.109Z,102385.81
2023-04-16T17:00:47.756Z,102392.19
2023-04-16T17:03:14.653Z,102392.47
2023-04-16T17:05:41.464Z,102398.03
2023-04-16T17:08:08.150Z,102393.75
2023-04-16T17:10:35.983Z,102393.03
2023-04-16T17:13:02.647Z,102400.28
2023-04-16T17:15:29.360Z,102403.91
2023-04-16T17:17:56.034Z,102401.41
2023-04-16T17:20:22.746Z,102398.91
2023-04-16T17:22:49.440Z,102404.47
2023-04-16T17:25:16.100Z,102403.78
2023-04-16T17:27:42.723Z,102413.66
2023-04-16T17:30:09.803Z,102403.19
2023-04-16T17:32:36.617Z,102411.19
2023-04-16T17:35:04.431Z,102422.78
2023-04-16T17:37:31.205Z,102419.31
2023-04-16T17:39:57.922Z,102421.19
2023-04-16T17:42:24.802Z,102422.22
2023-04-16T17:44:51.906Z,102431.19
2023-04-16T17:47:18.580Z,102424.19
2023-04-16T17:49:45.397Z,102434.97
2023-04-16T17:52:12.016Z,102441.25
2023-04-16T17:54:38.663Z,102439.50
2023-04-16T17:57:05.364Z,102446.59
2023-04-16T17:59:32.062Z,102441.31
2023-04-16T18:01:58.775Z,102448.47
2023-04-16T18:04:25.597Z,102452.09
2023-04-16T18:06:52.523Z,102450.44
2023-04-16T18:09:19.670Z,102457.56
2023-04-16T18:11:46.306Z,102457.56
2023-04-16T18:14:19.911Z,102462.84
2023-04-16T18:16:47.917Z,102458.47
2023-04-16T18:19:15.954Z,102458.56
2023-04-16T18:21:43.222Z,102463.06
2023-04-16T18:24:10.331Z,102463.09
2023-04-16T18:26:37.629Z,102468.50
2023-04-16T18:29:05.541Z,102465.94
2023-04-16T18:31:32.354Z,102470.44
2023-04-16T18:33:59.223Z,102472.25
2023-04-16T18:36:27.064Z,102469.69
2023-04-16T18:41:24.086Z,102474.19
2023-04-16T18:43:50.884Z,102477.69
2023-04-16T18:46:17.688Z,102481.28
2023-04-16T18:48:45.247Z,102488.34
2023-04-16T18:51:13.312Z,102488.41
2023-04-16T18:53:44.353Z,102502.56
2023-04-16T18:56:11.729Z,102501.69
2023-04-16T18:58:38.537Z,102499.94
2023-04-16T19:01:07.866Z,102505.22
2023-04-16T19:03:34.934Z,102506.13
2023-04-16T19:06:01.993Z,102511.44
2023-04-16T19:08:28.643Z,102514.97
2023-04-16T19:10:55.350Z,102514.13
2023-04-16T19:13:22.209Z,102506.19
2023-04-16T19:15:48.863Z,102508.00
2023-04-16T19:18:15.754Z,102515.94
2023-04-16T19:20:42.381Z,102515.03
2023-04-16T19:23:09.283Z,102517.69
2023-04-16T19:25:38.929Z,102518.56
2023-04-16T19:28:05.743Z,102531.78
2023-04-16T19:30:32.429Z,102530.00
2023-04-16T19:32:59.113Z,102523.81
2023-04-16T19:35:25.944Z,102532.63
2023-04-16T19:37:52.791Z,102528.19
2023-04-16T19:40:19.514Z,102542.31
2023-04-16T19:42:46.206Z,102529.97
2023-04-16T19:45:12.836Z,102527.31
2023-04-16T19:47:39.599Z,102525.53
2023-04-16T19:50:06.846Z,102525.50
2023-04-16T19:52:38.709Z,102532.56
2023-04-16T19:55:06.702Z,102525.47
2023-04-16T19:57:33.395Z,102521.94
2023-04-16T20:02:27.056Z,102532.50
2023-04-16T20:04:54.000Z,102527.16
2023-04-16T20:07:20.633Z,102529.75
2023-04-16T20:09:47.352Z,102523.56
2023-04-16T20:12:14.468Z,102524.38
2023-04-16T20:14:41.942Z,102522.59
2023-04-16T20:17:10.229Z,102528.69
2023-04-16T20:19:40.384Z,102526.03
2023-04-16T20:22:07.086Z,102521.56
2023-04-16T20:24:34.370Z,102530.31
2023-04-16T20:27:01.845Z,102532.03
2023-04-16T20:29:28.506Z,102526.69
2023-04-16T20:31:55.135Z,102531.06
2023-04-16T20:34:21.757Z,102535.41
2023-04-16T20:36:48.420Z,102538.91
2023-04-16T20:39:20.290Z,102535.34
2023-04-16T20:41:56.594Z,102540.59
2023-04-16T20:44:33.380Z,102540.59
2023-04-16T20:47:00.121Z,102548.47
2023-04-16T20:49:26.837Z,102546.63
2023-04-16T20:51:53.460Z,102545.69
2023-04-16T20:54:20.091Z,102547.38
2023-04-16T20:56:47.240Z,102543.81
2023-04-16T20:59:13.944Z,102549.03
2023-04-16T21:01:40.593Z,102543.72
2023-04-16T21:04:07.969Z,102548.94
2023-04-16T21:06:38.613Z,102554.22
2023-04-16T21:09:06.065Z,102549.72
2023-04-16T21:11:34.854Z,102564.63
2023-04-16T21:14:02.772Z,102565.47
2023-04-16T21:16:29.681Z,102566.34
2023-04-16T21:18:57.068Z,102568.94
2023-04-16T21:21:24.302Z,102570.63
2023-04-16T21:23:51.104Z,102569.66
2023-04-16T21:26:17.764Z,102575.78
2023-04-16T21:28:44.464Z,102570.47
2023-04-16T21:31:11.380Z,102574.78
2023-04-16T21:33:38.084Z,102571.19
2023-04-16T21:36:04.860Z,102579.91
2023-04-16T21:38:31.514Z,102582.53
2023-04-16T21:40:58.210Z,102571.97
2023-04-16T21:43:25.097Z,102579.81
2023-04-16T21:45:55.579Z,102565.78
2023-04-16T21:48:23.777Z,102578.06
2023-04-16T21:51:06.595Z,102583.38
2023-04-16T21:53:34.140Z,102583.31
2023-04-16T21:56:00.871Z,102579.78
2023-04-16T21:58:27.602Z,102588.50
2023-04-16T22:00:54.479Z,102588.41
2023-04-16T22:03:28.168Z,102581.31
2023-04-16T22:06:00.920Z,102588.25
2023-04-16T22:08:31.114Z,102584.69
2023-04-16T22:10:59.365Z,102587.38
2023-04-16T22:13:27.791Z,102592.59
2023-04-16T22:15:55.139Z,102588.09
2023-04-16T22:18:27.151Z,102588.00
2023-04-16T22:20:55.056Z,102591.44
2023-04-16T22:23:25.801Z,102594.03
2023-04-16T22:25:54.606Z,102594.84
2023-04-16T22:28:21.336Z,102601.81
2023-04-16T22:30:47.963Z,102592.97
2023-04-16T22:33:14.974Z,102596.38
2023-04-16T22:35:42.250Z,102606.91
2023-04-16T22:38:10.794Z,102599.84
2023-04-16T22:40:37.523Z,102598.13
2023-04-16T22:43:04.559Z,102608.75
2023-04-16T22:45:31.364Z,102599.94
2023-04-16T22:47:58.051Z,102607.72
2023-04-16T22:50:24.703Z,102604.94
2023-04-16T22:52:51.367Z,102609.19
2023-04-16T22:55:18.166Z,102615.25
2023-04-16T22:57:44.800Z,102618.69
2023-04-16T23:00:15.935Z,102614.22
2023-04-16T23:02:43.234Z,102614.13
2023-04-16T23:05:10.808Z,102622.84
2023-04-16T23:07:37.719Z,102620.16
2023-04-16T23:10:04.811Z,102613.09
2023-04-16T23:12:31.450Z,102617.41
2023-04-16T23:14:58.363Z,102618.13
2023-04-16T23:17:25.179Z,102618.97
2023-04-16T23:19:51.827Z,102614.63
2023-04-16T23:22:18.436Z,102624.34
2023-04-16T23:24:45.096Z,102628.72
2023-04-16T23:27:11.749Z,102628.72
2023-04-16T23:29:38.353Z,102626.91
2023-04-16T23:32:05.067Z,102630.34
2023-04-16T23:34:31.689Z,102633.00
2023-04-16T23:36:58.284Z,102631.19
2023-04-16T23:39:24.903Z,102631.16
2023-04-16T23:41:51.519Z,102626.69
2023-04-16T23:44:18.132Z,102629.13
2023-04-16T23:46:44.853Z,102631.69
2023-04-16T23:49:11.716Z,102635.16
2023-04-16T23:51:38.420Z,102636.88
2023-04-16T23:54:05.105Z,102633.34
2023-04-16T23:56:31.746Z,102628.91
2023-04-16T23:58:58.396Z,102630.59
